sensor_id;sensor_type;location;lat;lon;timestamp;P1;durP1;ratioP1;P2;durP2;ratioP2
16294;SDS011;8255;49.560;8.244;2022-12-20T00:01:47;36.60;;;23.97;;
16294;SDS011;8255;49.560;8.244;2022-12-20T00:04:13;35.57;;;24.70;;
16294;SDS011;8255;49.560;8.244;2022-12-20T00:06:39;37.30;;;26.63;;
16294;SDS011;8255;49.560;8.244;2022-12-20T00:09:07;43.13;;;28.13;;
16294;SDS011;8255;49.560;8.244;2022-12-20T00:11:34;37.27;;;25.37;;
16294;SDS011;8255;49.560;8.244;2022-12-20T00:14:04;35.93;;;24.40;;
16294;SDS011;8255;49.560;8.244;2022-12-20T00:16:31;37.23;;;24.53;;
16294;SDS011;8255;49.560;8.244;2022-12-20T00:18:58;37.83;;;24.43;;
16294;SDS011;8255;49.560;8.244;2022-12-20T00:21:25;35.30;;;25.13;;
16294;SDS011;8255;49.560;8.244;2022-12-20T00:23:52;38.33;;;23.80;;
16294;SDS011;8255;49.560;8.244;2022-12-20T00:26:19;35.47;;;23.80;;
16294;SDS011;8255;49.560;8.244;2022-12-20T00:28:46;35.87;;;24.30;;
16294;SDS011;8255;49.560;8.244;2022-12-20T00:31:15;33.30;;;23.57;;
16294;SDS011;8255;49.560;8.244;2022-12-20T00:33:43;33.23;;;23.37;;
16294;SDS011;8255;49.560;8.244;2022-12-20T00:36:10;36.17;;;24.00;;
16294;SDS011;8255;49.560;8.244;2022-12-20T00:38:37;38.63;;;24.20;;
16294;SDS011;8255;49.560;8.244;2022-12-20T00:41:04;38.37;;;24.87;;
16294;SDS011;8255;49.560;8.244;2022-12-20T00:43:31;36.07;;;24.67;;
16294;SDS011;8255;49.560;8.244;2022-12-20T00:45:58;37.97;;;24.37;;
16294;SDS011;8255;49.560;8.244;2022-12-20T00:48:26;35.53;;;25.03;;
16294;SDS011;8255;49.560;8.244;2022-12-20T00:50:56;39.93;;;24.80;;
16294;SDS011;8255;49.560;8.244;2022-12-20T00:53:23;39.97;;;23.50;;
16294;SDS011;8255;49.560;8.244;2022-12-20T00:55:49;39.07;;;25.73;;
16294;SDS011;8255;49.560;8.244;2022-12-20T00:58:16;34.60;;;23.33;;
16294;SDS011;8255;49.560;8.244;2022-12-20T01:00:42;35.33;;;23.47;;
16294;SDS011;8255;49.560;8.244;2022-12-20T01:03:08;37.03;;;24.40;;
16294;SDS011;8255;49.560;8.244;2022-12-20T01:05:36;35.50;;;24.17;;
16294;SDS011;8255;49.560;8.244;2022-12-20T01:08:04;39.87;;;25.20;;
16294;SDS011;8255;49.560;8.244;2022-12-20T01:10:30;42.37;;;25.40;;
16294;SDS011;8255;49.560;8.244;2022-12-20T01:12:57;37.87;;;24.37;;
16294;SDS011;8255;49.560;8.244;2022-12-20T01:15:23;38.03;;;23.33;;
16294;SDS011;8255;49.560;8.244;2022-12-20T01:17:50;38.63;;;25.03;;
16294;SDS011;8255;49.560;8.244;2022-12-20T01:20:17;35.40;;;24.07;;
16294;SDS011;8255;49.560;8.244;2022-12-20T01:22:44;37.23;;;24.50;;
16294;SDS011;8255;49.560;8.244;2022-12-20T01:25:11;35.57;;;24.53;;
16294;SDS011;8255;49.560;8.244;2022-12-20T01:27:37;35.73;;;23.27;;
16294;SDS011;8255;49.560;8.244;2022-12-20T01:30:03;36.97;;;24.97;;
16294;SDS011;8255;49.560;8.244;2022-12-20T01:32:30;35.10;;;23.87;;
16294;SDS011;8255;49.560;8.244;2022-12-20T01:34:56;36.03;;;24.17;;
16294;SDS011;8255;49.560;8.244;2022-12-20T01:37:23;34.77;;;24.03;;
16294;SDS011;8255;49.560;8.244;2022-12-20T01:39:50;34.97;;;23.43;;
16294;SDS011;8255;49.560;8.244;2022-12-20T01:42:17;36.00;;;25.37;;
16294;SDS011;8255;49.560;8.244;2022-12-20T01:44:50;35.47;;;23.17;;
16294;SDS011;8255;49.560;8.244;2022-12-20T01:47:17;33.87;;;23.73;;
16294;SDS011;8255;49.560;8.244;2022-12-20T01:49:44;35.43;;;24.13;;
16294;SDS011;8255;49.560;8.244;2022-12-20T01:52:13;36.83;;;24.40;;
16294;SDS011;8255;49.560;8.244;2022-12-20T01:54:42;39.70;;;24.93;;
16294;SDS011;8255;49.560;8.244;2022-12-20T01:57:13;40.10;;;24.53;;
16294;SDS011;8255;49.560;8.244;2022-12-20T01:59:41;39.10;;;24.83;;
16294;SDS011;8255;49.560;8.244;2022-12-20T02:02:10;40.67;;;24.33;;
16294;SDS011;8255;49.560;8.244;2022-12-20T02:04:37;37.93;;;24.20;;
16294;SDS011;8255;49.560;8.244;2022-12-20T02:07:03;37.23;;;23.17;;
16294;SDS011;8255;49.560;8.244;2022-12-20T02:09:30;38.63;;;24.20;;
16294;SDS011;8255;49.560;8.244;2022-12-20T02:12:00;38.47;;;24.27;;
16294;SDS011;8255;49.560;8.244;2022-12-20T02:14:43;34.93;;;22.67;;
16294;SDS011;8255;49.560;8.244;2022-12-20T02:17:17;34.40;;;23.37;;
16294;SDS011;8255;49.560;8.244;2022-12-20T02:22:36;37.17;;;23.23;;
16294;SDS011;8255;49.560;8.244;2022-12-20T02:25:13;34.87;;;22.93;;
16294;SDS011;8255;49.560;8.244;2022-12-20T02:27:44;35.30;;;23.50;;
16294;SDS011;8255;49.560;8.244;2022-12-20T02:30:16;32.33;;;22.73;;
16294;SDS011;8255;49.560;8.244;2022-12-20T02:32:48;33.53;;;21.23;;
16294;SDS011;8255;49.560;8.244;2022-12-20T02:35:18;33.47;;;22.40;;
16294;SDS011;8255;49.560;8.244;2022-12-20T02:37:46;30.40;;;22.03;;
16294;SDS011;8255;49.560;8.244;2022-12-20T02:40:14;35.23;;;22.17;;
16294;SDS011;8255;49.560;8.244;2022-12-20T02:42:42;33.57;;;21.37;;
16294;SDS011;8255;49.560;8.244;2022-12-20T02:45:10;32.53;;;22.93;;
16294;SDS011;8255;49.560;8.244;2022-12-20T02:47:47;30.40;;;21.80;;
16294;SDS011;8255;49.560;8.244;2022-12-20T02:50:13;33.93;;;22.17;;
16294;SDS011;8255;49.560;8.244;2022-12-20T02:52:42;31.83;;;21.47;;
16294;SDS011;8255;49.560;8.244;2022-12-20T02:55:09;35.93;;;22.90;;
16294;SDS011;8255;49.560;8.244;2022-12-20T02:57:37;35.20;;;22.60;;
16294;SDS011;8255;49.560;8.244;2022-12-20T03:00:08;36.63;;;23.20;;
16294;SDS011;8255;49.560;8.244;2022-12-20T03:02:36;31.80;;;21.57;;
16294;SDS011;8255;49.560;8.244;2022-12-20T03:05:20;29.77;;;22.07;;
16294;SDS011;8255;49.560;8.244;2022-12-20T03:07:47;39.77;;;24.30;;
16294;SDS011;8255;49.560;8.244;2022-12-20T03:10:14;28.43;;;21.20;;
16294;SDS011;8255;49.560;8.244;2022-12-20T03:12:40;34.47;;;22.63;;
16294;SDS011;8255;49.560;8.244;2022-12-20T03:15:07;29.87;;;21.07;;
16294;SDS011;8255;49.560;8.244;2022-12-20T03:17:33;29.63;;;21.13;;
16294;SDS011;8255;49.560;8.244;2022-12-20T03:20:00;29.93;;;21.23;;
16294;SDS011;8255;49.560;8.244;2022-12-20T03:22:28;31.67;;;22.57;;
16294;SDS011;8255;49.560;8.244;2022-12-20T03:24:55;35.17;;;23.07;;
16294;SDS011;8255;49.560;8.244;2022-12-20T03:27:22;31.60;;;21.07;;
16294;SDS011;8255;49.560;8.244;2022-12-20T03:29:48;29.20;;;20.00;;
16294;SDS011;8255;49.560;8.244;2022-12-20T03:32:15;27.83;;;20.53;;
16294;SDS011;8255;49.560;8.244;2022-12-20T03:34:43;25.53;;;19.73;;
16294;SDS011;8255;49.560;8.244;2022-12-20T03:37:10;29.20;;;20.37;;
16294;SDS011;8255;49.560;8.244;2022-12-20T03:39:38;28.00;;;20.40;;
16294;SDS011;8255;49.560;8.244;2022-12-20T03:42:06;29.33;;;20.17;;
16294;SDS011;8255;49.560;8.244;2022-12-20T03:44:33;26.43;;;18.63;;
16294;SDS011;8255;49.560;8.244;2022-12-20T03:47:02;26.23;;;19.17;;
16294;SDS011;8255;49.560;8.244;2022-12-20T03:49:29;27.50;;;18.27;;
16294;SDS011;8255;49.560;8.244;2022-12-20T03:51:55;24.60;;;18.43;;
16294;SDS011;8255;49.560;8.244;2022-12-20T03:54:21;23.37;;;18.03;;
16294;SDS011;8255;49.560;8.244;2022-12-20T03:57:04;26.60;;;19.07;;
16294;SDS011;8255;49.560;8.244;2022-12-20T03:59:31;23.67;;;18.27;;
16294;SDS011;8255;49.560;8.244;2022-12-20T04:01:58;25.57;;;17.33;;
16294;SDS011;8255;49.560;8.244;2022-12-20T04:04:27;27.13;;;17.90;;
16294;SDS011;8255;49.560;8.244;2022-12-20T04:06:54;26.17;;;18.67;;
16294;SDS011;8255;49.560;8.244;2022-12-20T04:09:20;22.53;;;15.43;;
16294;SDS011;8255;49.560;8.244;2022-12-20T04:11:52;28.37;;;18.20;;
16294;SDS011;8255;49.560;8.244;2022-12-20T04:14:19;24.70;;;18.57;;
16294;SDS011;8255;49.560;8.244;2022-12-20T04:16:47;22.50;;;17.33;;
16294;SDS011;8255;49.560;8.244;2022-12-20T04:19:14;20.77;;;17.07;;
16294;SDS011;8255;49.560;8.244;2022-12-20T04:21:44;24.57;;;16.57;;
16294;SDS011;8255;49.560;8.244;2022-12-20T04:24:11;23.53;;;17.70;;
16294;SDS011;8255;49.560;8.244;2022-12-20T04:26:42;23.13;;;17.63;;
16294;SDS011;8255;49.560;8.244;2022-12-20T04:29:10;24.17;;;17.50;;
16294;SDS011;8255;49.560;8.244;2022-12-20T04:31:39;26.67;;;18.07;;
16294;SDS011;8255;49.560;8.244;2022-12-20T04:34:06;28.13;;;18.23;;
16294;SDS011;8255;49.560;8.244;2022-12-20T04:36:33;24.73;;;17.10;;
16294;SDS011;8255;49.560;8.244;2022-12-20T04:39:03;25.20;;;18.00;;
16294;SDS011;8255;49.560;8.244;2022-12-20T04:41:37;25.40;;;18.00;;
16294;SDS011;8255;49.560;8.244;2022-12-20T04:44:08;25.80;;;17.53;;
16294;SDS011;8255;49.560;8.244;2022-12-20T04:46:36;24.63;;;16.80;;
16294;SDS011;8255;49.560;8.244;2022-12-20T04:49:06;24.13;;;17.07;;
16294;SDS011;8255;49.560;8.244;2022-12-20T04:51:36;21.73;;;17.23;;
16294;SDS011;8255;49.560;8.244;2022-12-20T04:54:04;20.10;;;16.83;;
16294;SDS011;8255;49.560;8.244;2022-12-20T04:56:55;22.60;;;17.53;;
16294;SDS011;8255;49.560;8.244;2022-12-20T04:59:23;25.37;;;17.70;;
16294;SDS011;8255;49.560;8.244;2022-12-20T05:01:52;23.67;;;16.43;;
16294;SDS011;8255;49.560;8.244;2022-12-20T05:04:43;23.87;;;16.10;;
16294;SDS011;8255;49.560;8.244;2022-12-20T05:07:09;26.83;;;17.97;;
16294;SDS011;8255;49.560;8.244;2022-12-20T05:09:38;23.43;;;17.23;;
16294;SDS011;8255;49.560;8.244;2022-12-20T05:12:05;25.00;;;17.37;;
16294;SDS011;8255;49.560;8.244;2022-12-20T05:14:32;23.67;;;17.07;;
16294;SDS011;8255;49.560;8.244;2022-12-20T05:16:58;24.17;;;18.30;;
16294;SDS011;8255;49.560;8.244;2022-12-20T05:19:26;23.00;;;17.63;;
16294;SDS011;8255;49.560;8.244;2022-12-20T05:21:53;21.63;;;17.40;;
16294;SDS011;8255;49.560;8.244;2022-12-20T05:24:41;21.87;;;16.10;;
16294;SDS011;8255;49.560;8.244;2022-12-20T05:27:29;22.63;;;16.77;;
16294;SDS011;8255;49.560;8.244;2022-12-20T05:29:56;23.17;;;18.30;;
16294;SDS011;8255;49.560;8.244;2022-12-20T05:32:23;22.23;;;16.63;;
16294;SDS011;8255;49.560;8.244;2022-12-20T05:34:53;27.03;;;18.47;;
16294;SDS011;8255;49.560;8.244;2022-12-20T05:37:21;23.77;;;17.53;;
16294;SDS011;8255;49.560;8.244;2022-12-20T05:39:47;22.17;;;16.70;;
16294;SDS011;8255;49.560;8.244;2022-12-20T05:42:18;24.83;;;17.93;;
16294;SDS011;8255;49.560;8.244;2022-12-20T05:44:48;21.43;;;16.37;;
16294;SDS011;8255;49.560;8.244;2022-12-20T05:47:15;26.80;;;17.57;;
16294;SDS011;8255;49.560;8.244;2022-12-20T05:49:42;25.67;;;17.97;;
16294;SDS011;8255;49.560;8.244;2022-12-20T05:52:09;21.83;;;16.87;;
16294;SDS011;8255;49.560;8.244;2022-12-20T05:54:40;23.67;;;16.80;;
16294;SDS011;8255;49.560;8.244;2022-12-20T05:57:13;21.87;;;16.67;;
16294;SDS011;8255;49.560;8.244;2022-12-20T05:59:40;22.80;;;17.13;;
16294;SDS011;8255;49.560;8.244;2022-12-20T06:02:14;19.63;;;16.13;;
16294;SDS011;8255;49.560;8.244;2022-12-20T06:04:41;22.87;;;16.57;;
16294;SDS011;8255;49.560;8.244;2022-12-20T06:07:14;24.20;;;17.13;;
16294;SDS011;8255;49.560;8.244;2022-12-20T06:09:43;22.63;;;16.87;;
16294;SDS011;8255;49.560;8.244;2022-12-20T06:12:13;21.93;;;16.60;;
16294;SDS011;8255;49.560;8.244;2022-12-20T06:14:40;22.50;;;16.40;;
16294;SDS011;8255;49.560;8.244;2022-12-20T06:17:06;24.67;;;17.50;;
16294;SDS011;8255;49.560;8.244;2022-12-20T06:19:33;26.23;;;16.50;;
16294;SDS011;8255;49.560;8.244;2022-12-20T06:21:59;23.77;;;17.63;;
16294;SDS011;8255;49.560;8.244;2022-12-20T06:24:53;21.80;;;16.60;;
16294;SDS011;8255;49.560;8.244;2022-12-20T06:27:24;21.80;;;15.97;;
16294;SDS011;8255;49.560;8.244;2022-12-20T06:30:01;22.93;;;16.27;;
16294;SDS011;8255;49.560;8.244;2022-12-20T06:32:36;23.50;;;15.77;;
16294;SDS011;8255;49.560;8.244;2022-12-20T06:35:04;22.77;;;16.67;;
16294;SDS011;8255;49.560;8.244;2022-12-20T06:37:31;23.00;;;16.37;;
16294;SDS011;8255;49.560;8.244;2022-12-20T06:39:59;22.43;;;17.00;;
16294;SDS011;8255;49.560;8.244;2022-12-20T06:42:25;27.07;;;17.17;;
16294;SDS011;8255;49.560;8.244;2022-12-20T06:44:51;23.60;;;16.90;;
16294;SDS011;8255;49.560;8.244;2022-12-20T06:47:18;20.90;;;16.67;;
16294;SDS011;8255;49.560;8.244;2022-12-20T06:49:45;23.03;;;16.40;;
16294;SDS011;8255;49.560;8.244;2022-12-20T06:52:19;23.57;;;15.70;;
16294;SDS011;8255;49.560;8.244;2022-12-20T06:54:48;20.93;;;16.60;;
16294;SDS011;8255;49.560;8.244;2022-12-20T06:57:15;22.30;;;16.63;;
16294;SDS011;8255;49.560;8.244;2022-12-20T06:59:45;22.03;;;16.50;;
16294;SDS011;8255;49.560;8.244;2022-12-20T07:02:12;19.83;;;16.23;;
16294;SDS011;8255;49.560;8.244;2022-12-20T07:04:38;20.23;;;16.20;;
16294;SDS011;8255;49.560;8.244;2022-12-20T07:07:05;21.23;;;15.50;;
16294;SDS011;8255;49.560;8.244;2022-12-20T07:09:32;24.17;;;16.73;;
16294;SDS011;8255;49.560;8.244;2022-12-20T07:11:58;22.10;;;16.97;;
16294;SDS011;8255;49.560;8.244;2022-12-20T07:14:26;25.80;;;20.65;;
16294;SDS011;8255;49.560;8.244;2022-12-20T07:16:52;23.57;;;17.87;;
16294;SDS011;8255;49.560;8.244;2022-12-20T07:19:18;23.73;;;17.47;;
16294;SDS011;8255;49.560;8.244;2022-12-20T07:21:46;27.93;;;17.17;;
16294;SDS011;8255;49.560;8.244;2022-12-20T07:24:12;25.70;;;17.37;;
16294;SDS011;8255;49.560;8.244;2022-12-20T07:26:38;22.57;;;17.13;;
16294;SDS011;8255;49.560;8.244;2022-12-20T07:29:05;22.30;;;17.30;;
16294;SDS011;8255;49.560;8.244;2022-12-20T07:31:32;26.33;;;16.40;;
16294;SDS011;8255;49.560;8.244;2022-12-20T07:33:59;21.80;;;16.10;;
16294;SDS011;8255;49.560;8.244;2022-12-20T07:36:25;24.47;;;17.40;;
16294;SDS011;8255;49.560;8.244;2022-12-20T07:38:51;20.63;;;16.13;;
16294;SDS011;8255;49.560;8.244;2022-12-20T07:41:18;20.10;;;16.10;;
16294;SDS011;8255;49.560;8.244;2022-12-20T07:43:44;21.43;;;17.23;;
16294;SDS011;8255;49.560;8.244;2022-12-20T07:46:11;20.83;;;16.20;;
16294;SDS011;8255;49.560;8.244;2022-12-20T07:48:39;24.75;;;16.77;;
16294;SDS011;8255;49.560;8.244;2022-12-20T07:51:07;22.85;;;19.35;;
16294;SDS011;8255;49.560;8.244;2022-12-20T07:53:35;23.63;;;16.87;;
16294;SDS011;8255;49.560;8.244;2022-12-20T07:56:03;21.43;;;16.67;;
16294;SDS011;8255;49.560;8.244;2022-12-20T07:58:31;21.10;;;16.60;;
16294;SDS011;8255;49.560;8.244;2022-12-20T08:00:58;22.47;;;16.30;;
16294;SDS011;8255;49.560;8.244;2022-12-20T08:03:27;21.13;;;15.80;;
16294;SDS011;8255;49.560;8.244;2022-12-20T08:05:57;21.17;;;15.90;;
16294;SDS011;8255;49.560;8.244;2022-12-20T08:08:27;23.87;;;16.27;;
16294;SDS011;8255;49.560;8.244;2022-12-20T08:10:54;22.07;;;16.47;;
16294;SDS011;8255;49.560;8.244;2022-12-20T08:13:20;19.93;;;16.13;;
16294;SDS011;8255;49.560;8.244;2022-12-20T08:15:47;18.53;;;15.00;;
16294;SDS011;8255;49.560;8.244;2022-12-20T08:18:13;19.57;;;15.40;;
16294;SDS011;8255;49.560;8.244;2022-12-20T08:20:40;22.17;;;16.60;;
16294;SDS011;8255;49.560;8.244;2022-12-20T08:23:07;21.20;;;15.67;;
16294;SDS011;8255;49.560;8.244;2022-12-20T08:25:34;22.87;;;16.97;;
16294;SDS011;8255;49.560;8.244;2022-12-20T08:28:00;21.13;;;17.63;;
16294;SDS011;8255;49.560;8.244;2022-12-20T08:30:28;21.37;;;17.57;;
16294;SDS011;8255;49.560;8.244;2022-12-20T08:32:54;23.20;;;17.47;;
16294;SDS011;8255;49.560;8.244;2022-12-20T08:35:21;24.23;;;19.20;;
16294;SDS011;8255;49.560;8.244;2022-12-20T08:37:49;32.57;;;19.80;;
16294;SDS011;8255;49.560;8.244;2022-12-20T08:40:17;34.77;;;21.03;;
16294;SDS011;8255;49.560;8.244;2022-12-20T08:42:44;25.73;;;17.87;;
16294;SDS011;8255;49.560;8.244;2022-12-20T08:45:10;28.00;;;18.37;;
16294;SDS011;8255;49.560;8.244;2022-12-20T08:47:37;41.67;;;20.87;;
16294;SDS011;8255;49.560;8.244;2022-12-20T08:50:04;41.77;;;21.53;;
16294;SDS011;8255;49.560;8.244;2022-12-20T08:52:31;26.73;;;17.70;;
16294;SDS011;8255;49.560;8.244;2022-12-20T08:54:57;27.43;;;17.97;;
16294;SDS011;8255;49.560;8.244;2022-12-20T08:57:25;33.47;;;19.33;;
16294;SDS011;8255;49.560;8.244;2022-12-20T08:59:51;35.83;;;20.57;;
16294;SDS011;8255;49.560;8.244;2022-12-20T09:02:17;45.07;;;23.47;;
16294;SDS011;8255;49.560;8.244;2022-12-20T09:04:44;23.27;;;17.07;;
16294;SDS011;8255;49.560;8.244;2022-12-20T09:07:11;21.67;;;16.27;;
16294;SDS011;8255;49.560;8.244;2022-12-20T09:09:37;21.90;;;17.03;;
16294;SDS011;8255;49.560;8.244;2022-12-20T09:12:04;22.23;;;16.23;;
16294;SDS011;8255;49.560;8.244;2022-12-20T09:14:33;21.00;;;16.43;;
16294;SDS011;8255;49.560;8.244;2022-12-20T09:16:59;23.30;;;16.67;;
16294;SDS011;8255;49.560;8.244;2022-12-20T09:19:25;26.00;;;15.30;;
16294;SDS011;8255;49.560;8.244;2022-12-20T09:21:52;22.30;;;15.93;;
16294;SDS011;8255;49.560;8.244;2022-12-20T09:24:19;23.17;;;17.47;;
16294;SDS011;8255;49.560;8.244;2022-12-20T09:26:45;21.13;;;16.67;;
16294;SDS011;8255;49.560;8.244;2022-12-20T09:29:12;20.53;;;16.73;;
16294;SDS011;8255;49.560;8.244;2022-12-20T09:31:39;21.07;;;16.17;;
16294;SDS011;8255;49.560;8.244;2022-12-20T09:34:05;21.67;;;16.23;;
16294;SDS011;8255;49.560;8.244;2022-12-20T09:36:32;21.60;;;17.30;;
16294;SDS011;8255;49.560;8.244;2022-12-20T09:38:58;21.80;;;17.03;;
16294;SDS011;8255;49.560;8.244;2022-12-20T09:41:32;19.53;;;16.17;;
16294;SDS011;8255;49.560;8.244;2022-12-20T09:44:03;23.60;;;17.23;;
16294;SDS011;8255;49.560;8.244;2022-12-20T09:46:29;22.27;;;16.23;;
16294;SDS011;8255;49.560;8.244;2022-12-20T09:48:58;19.73;;;16.17;;
16294;SDS011;8255;49.560;8.244;2022-12-20T09:51:28;21.53;;;15.63;;
16294;SDS011;8255;49.560;8.244;2022-12-20T09:54:02;21.63;;;16.33;;
16294;SDS011;8255;49.560;8.244;2022-12-20T09:56:31;19.60;;;16.50;;
16294;SDS011;8255;49.560;8.244;2022-12-20T09:58:59;20.13;;;15.93;;
16294;SDS011;8255;49.560;8.244;2022-12-20T10:01:27;20.07;;;15.73;;
16294;SDS011;8255;49.560;8.244;2022-12-20T10:03:54;21.67;;;16.90;;
16294;SDS011;8255;49.560;8.244;2022-12-20T10:06:25;23.10;;;15.77;;
16294;SDS011;8255;49.560;8.244;2022-12-20T10:08:55;21.07;;;15.03;;
16294;SDS011;8255;49.560;8.244;2022-12-20T10:11:29;20.60;;;16.23;;
16294;SDS011;8255;49.560;8.244;2022-12-20T10:13:59;18.43;;;15.37;;
16294;SDS011;8255;49.560;8.244;2022-12-20T10:16:32;19.90;;;16.40;;
16294;SDS011;8255;49.560;8.244;2022-12-20T10:19:04;22.37;;;17.67;;
16294;SDS011;8255;49.560;8.244;2022-12-20T10:21:36;19.67;;;15.23;;
16294;SDS011;8255;49.560;8.244;2022-12-20T10:24:04;18.43;;;16.00;;
16294;SDS011;8255;49.560;8.244;2022-12-20T10:26:35;22.67;;;16.30;;
16294;SDS011;8255;49.560;8.244;2022-12-20T10:29:01;21.80;;;18.40;;
16294;SDS011;8255;49.560;8.244;2022-12-20T10:31:27;19.93;;;16.97;;
16294;SDS011;8255;49.560;8.244;2022-12-20T10:33:54;19.77;;;16.17;;
16294;SDS011;8255;49.560;8.244;2022-12-20T10:36:23;21.73;;;15.87;;
16294;SDS011;8255;49.560;8.244;2022-12-20T10:38:53;19.90;;;16.37;;
16294;SDS011;8255;49.560;8.244;2022-12-20T10:41:20;18.13;;;15.93;;
16294;SDS011;8255;49.560;8.244;2022-12-20T10:43:48;20.97;;;16.93;;
16294;SDS011;8255;49.560;8.244;2022-12-20T10:46:16;20.50;;;15.97;;
16294;SDS011;8255;49.560;8.244;2022-12-20T10:48:43;20.60;;;16.07;;
16294;SDS011;8255;49.560;8.244;2022-12-20T10:51:13;23.90;;;16.67;;
16294;SDS011;8255;49.560;8.244;2022-12-20T10:53:49;20.13;;;16.80;;
16294;SDS011;8255;49.560;8.244;2022-12-20T10:56:18;20.93;;;17.07;;
16294;SDS011;8255;49.560;8.244;2022-12-20T10:58:53;23.33;;;17.17;;
16294;SDS011;8255;49.560;8.244;2022-12-20T11:01:20;18.97;;;16.20;;
16294;SDS011;8255;49.560;8.244;2022-12-20T11:03:51;20.47;;;15.63;;
16294;SDS011;8255;49.560;8.244;2022-12-20T11:06:18;19.37;;;15.90;;
16294;SDS011;8255;49.560;8.244;2022-12-20T11:08:44;21.50;;;16.53;;
16294;SDS011;8255;49.560;8.244;2022-12-20T11:11:13;20.90;;;17.43;;
16294;SDS011;8255;49.560;8.244;2022-12-20T11:13:41;21.87;;;16.23;;
16294;SDS011;8255;49.560;8.244;2022-12-20T11:19:09;22.27;;;18.37;;
16294;SDS011;8255;49.560;8.244;2022-12-20T11:21:40;44.77;;;31.00;;
16294;SDS011;8255;49.560;8.244;2022-12-20T11:24:09;25.90;;;20.00;;
16294;SDS011;8255;49.560;8.244;2022-12-20T11:26:47;21.60;;;16.77;;
16294;SDS011;8255;49.560;8.244;2022-12-20T11:29:24;18.73;;;15.90;;
16294;SDS011;8255;49.560;8.244;2022-12-20T11:31:55;20.33;;;16.80;;
16294;SDS011;8255;49.560;8.244;2022-12-20T11:34:25;23.37;;;18.37;;
16294;SDS011;8255;49.560;8.244;2022-12-20T11:37:01;21.40;;;17.53;;
16294;SDS011;8255;49.560;8.244;2022-12-20T11:39:31;23.47;;;18.03;;
16294;SDS011;8255;49.560;8.244;2022-12-20T11:42:01;22.57;;;17.93;;
16294;SDS011;8255;49.560;8.244;2022-12-20T11:44:35;22.40;;;17.73;;
16294;SDS011;8255;49.560;8.244;2022-12-20T11:47:12;20.43;;;16.53;;
16294;SDS011;8255;49.560;8.244;2022-12-20T11:49:49;21.50;;;16.93;;
16294;SDS011;8255;49.560;8.244;2022-12-20T11:52:19;19.27;;;16.97;;
16294;SDS011;8255;49.560;8.244;2022-12-20T11:54:52;19.80;;;16.60;;
16294;SDS011;8255;49.560;8.244;2022-12-20T11:57:22;22.20;;;16.67;;
16294;SDS011;8255;49.560;8.244;2022-12-20T11:59:53;20.77;;;16.10;;
16294;SDS011;8255;49.560;8.244;2022-12-20T12:02:21;21.07;;;16.50;;
16294;SDS011;8255;49.560;8.244;2022-12-20T12:04:52;21.10;;;16.07;;
16294;SDS011;8255;49.560;8.244;2022-12-20T12:07:21;20.63;;;16.70;;
16294;SDS011;8255;49.560;8.244;2022-12-20T12:09:50;41.13;;;28.87;;
16294;SDS011;8255;49.560;8.244;2022-12-20T12:12:21;28.67;;;22.27;;
16294;SDS011;8255;49.560;8.244;2022-12-20T12:14:50;24.93;;;19.33;;
16294;SDS011;8255;49.560;8.244;2022-12-20T12:17:22;19.77;;;16.97;;
16294;SDS011;8255;49.560;8.244;2022-12-20T12:19:50;21.50;;;17.60;;
16294;SDS011;8255;49.560;8.244;2022-12-20T12:22:21;20.23;;;16.33;;
16294;SDS011;8255;49.560;8.244;2022-12-20T12:24:48;20.13;;;16.57;;
16294;SDS011;8255;49.560;8.244;2022-12-20T12:27:20;22.70;;;16.90;;
16294;SDS011;8255;49.560;8.244;2022-12-20T12:29:47;18.80;;;16.27;;
16294;SDS011;8255;49.560;8.244;2022-12-20T12:32:15;18.70;;;15.63;;
16294;SDS011;8255;49.560;8.244;2022-12-20T12:34:46;21.33;;;15.60;;
16294;SDS011;8255;49.560;8.244;2022-12-20T12:37:25;16.67;;;14.87;;
16294;SDS011;8255;49.560;8.244;2022-12-20T12:39:59;16.00;;;14.23;;
16294;SDS011;8255;49.560;8.244;2022-12-20T12:42:32;19.55;;;15.02;;
16294;SDS011;8255;49.560;8.244;2022-12-20T12:45:02;18.27;;;14.65;;
16294;SDS011;8255;49.560;8.244;2022-12-20T12:47:32;16.55;;;14.68;;
16294;SDS011;8255;49.560;8.244;2022-12-20T12:50:01;17.63;;;14.50;;
16294;SDS011;8255;49.560;8.244;2022-12-20T12:52:35;16.48;;;14.45;;
16294;SDS011;8255;49.560;8.244;2022-12-20T12:57:53;15.40;;;13.18;;
16294;SDS011;8255;49.560;8.244;2022-12-20T13:03:04;15.13;;;12.40;;
16294;SDS011;8255;49.560;8.244;2022-12-20T13:05:35;15.45;;;13.00;;
16294;SDS011;8255;49.560;8.244;2022-12-20T13:08:01;14.20;;;12.15;;
16294;SDS011;8255;49.560;8.244;2022-12-20T13:13:17;17.38;;;15.02;;
16294;SDS011;8255;49.560;8.244;2022-12-20T13:15:47;14.20;;;12.70;;
16294;SDS011;8255;49.560;8.244;2022-12-20T13:18:24;13.75;;;12.32;;
16294;SDS011;8255;49.560;8.244;2022-12-20T13:23:36;13.88;;;11.98;;
16294;SDS011;8255;49.560;8.244;2022-12-20T13:26:03;13.60;;;12.05;;
16294;SDS011;8255;49.560;8.244;2022-12-20T13:28:49;13.85;;;11.88;;
16294;SDS011;8255;49.560;8.244;2022-12-20T13:31:28;15.40;;;11.50;;
16294;SDS011;8255;49.560;8.244;2022-12-20T13:33:55;13.02;;;11.60;;
16294;SDS011;8255;49.560;8.244;2022-12-20T13:36:29;13.40;;;11.32;;
16294;SDS011;8255;49.560;8.244;2022-12-20T13:38:58;12.63;;;11.20;;
16294;SDS011;8255;49.560;8.244;2022-12-20T13:41:32;12.90;;;11.23;;
16294;SDS011;8255;49.560;8.244;2022-12-20T13:44:00;13.02;;;11.40;;
16294;SDS011;8255;49.560;8.244;2022-12-20T13:46:30;12.20;;;10.93;;
16294;SDS011;8255;49.560;8.244;2022-12-20T13:49:03;13.40;;;11.57;;
16294;SDS011;8255;49.560;8.244;2022-12-20T13:51:30;14.15;;;11.85;;
16294;SDS011;8255;49.560;8.244;2022-12-20T13:53:57;14.13;;;11.88;;
16294;SDS011;8255;49.560;8.244;2022-12-20T13:56:32;13.25;;;11.48;;
16294;SDS011;8255;49.560;8.244;2022-12-20T13:59:02;11.70;;;10.55;;
16294;SDS011;8255;49.560;8.244;2022-12-20T14:01:29;13.95;;;11.48;;
16294;SDS011;8255;49.560;8.244;2022-12-20T14:03:56;12.40;;;10.70;;
16294;SDS011;8255;49.560;8.244;2022-12-20T14:06:23;12.90;;;10.95;;
16294;SDS011;8255;49.560;8.244;2022-12-20T14:08:50;11.95;;;10.73;;
16294;SDS011;8255;49.560;8.244;2022-12-20T14:11:18;13.63;;;11.32;;
16294;SDS011;8255;49.560;8.244;2022-12-20T14:13:51;14.02;;;11.82;;
16294;SDS011;8255;49.560;8.244;2022-12-20T14:16:18;13.02;;;11.73;;
16294;SDS011;8255;49.560;8.244;2022-12-20T14:18:47;12.07;;;10.38;;
16294;SDS011;8255;49.560;8.244;2022-12-20T14:21:13;11.15;;;9.95;;
16294;SDS011;8255;49.560;8.244;2022-12-20T14:23:41;10.90;;;9.80;;
16294;SDS011;8255;49.560;8.244;2022-12-20T14:26:09;10.43;;;9.32;;
16294;SDS011;8255;49.560;8.244;2022-12-20T14:28:36;10.30;;;9.30;;
16294;SDS011;8255;49.560;8.244;2022-12-20T14:31:05;11.18;;;9.05;;
16294;SDS011;8255;49.560;8.244;2022-12-20T14:33:33;10.52;;;9.52;;
16294;SDS011;8255;49.560;8.244;2022-12-20T14:36:07;11.68;;;10.02;;
16294;SDS011;8255;49.560;8.244;2022-12-20T14:38:33;10.30;;;9.20;;
16294;SDS011;8255;49.560;8.244;2022-12-20T14:41:00;11.55;;;9.65;;
16294;SDS011;8255;49.560;8.244;2022-12-20T14:43:27;12.90;;;10.98;;
16294;SDS011;8255;49.560;8.244;2022-12-20T14:48:48;11.27;;;10.18;;
16294;SDS011;8255;49.560;8.244;2022-12-20T14:51:29;11.90;;;10.70;;
16294;SDS011;8255;49.560;8.244;2022-12-20T14:53:56;15.52;;;10.35;;
16294;SDS011;8255;49.560;8.244;2022-12-20T14:56:24;12.63;;;11.15;;
16294;SDS011;8255;49.560;8.244;2022-12-20T14:59:00;14.43;;;12.18;;
16294;SDS011;8255;49.560;8.244;2022-12-20T15:01:26;15.93;;;11.10;;
16294;SDS011;8255;49.560;8.244;2022-12-20T15:03:58;12.63;;;11.40;;
16294;SDS011;8255;49.560;8.244;2022-12-20T15:06:31;14.32;;;11.90;;